sensor_id;sensor_type;location;lat;lon;timestamp;temperature;humidity
22923;DHT22;11627;51.322;22.816;2023-01-25T00:02:02;2.00;99.90
22923;DHT22;11627;51.322;22.816;2023-01-25T00:04:30;2.10;99.90
22923;DHT22;11627;51.322;22.816;2023-01-25T00:06:57;2.20;99.90
22923;DHT22;11627;51.322;22.816;2023-01-25T00:09:23;2.00;99.90
22923;DHT22;11627;51.322;22.816;2023-01-25T00:11:49;1.90;99.90
22923;DHT22;11627;51.322;22.816;2023-01-25T00:14:15;1.90;99.90
22923;DHT22;11627;51.322;22.816;2023-01-25T00:16:42;1.80;99.90
22923;DHT22;11627;51.322;22.816;2023-01-25T00:19:08;1.80;99.90
22923;DHT22;11627;51.322;22.816;2023-01-25T00:21:34;1.90;99.90
22923;DHT22;11627;51.322;22.816;2023-01-25T00:24:01;1.90;99.90
22923;DHT22;11627;51.322;22.816;2023-01-25T00:26:31;2.10;99.90
22923;DHT22;11627;51.322;22.816;2023-01-25T00:28:57;1.90;99.90
22923;DHT22;11627;51.322;22.816;2023-01-25T00:37:35;2.00;99.90
22923;DHT22;11627;51.322;22.816;2023-01-25T00:39:55;2.00;99.90
22923;DHT22;11627;51.322;22.816;2023-01-25T00:42:21;2.00;99.90
22923;DHT22;11627;51.322;22.816;2023-01-25T00:44:47;2.10;99.90
22923;DHT22;11627;51.322;22.816;2023-01-25T00:47:13;2.10;99.90
22923;DHT22;11627;51.322;22.816;2023-01-25T00:49:41;2.90;99.90
22923;DHT22;11627;51.322;22.816;2023-01-25T00:52:10;2.20;99.90
22923;DHT22;11627;51.322;22.816;2023-01-25T00:54:36;2.20;99.90
22923;DHT22;11627;51.322;22.816;2023-01-25T00:57:01;2.20;99.90
22923;DHT22;11627;51.322;22.816;2023-01-25T00:59:27;2.20;99.90
22923;DHT22;11627;51.322;22.816;2023-01-25T01:01:53;2.20;99.90
22923;DHT22;11627;51.322;22.816;2023-01-25T01:04:20;2.10;99.90
22923;DHT22;11627;51.322;22.816;2023-01-25T01:06:49;2.10;99.90
22923;DHT22;11627;51.322;22.816;2023-01-25T01:09:16;2.10;99.90
22923;DHT22;11627;51.322;22.816;2023-01-25T01:11:43;2.10;99.90
22923;DHT22;11627;51.322;22.816;2023-01-25T01:14:08;1.90;99.90
22923;DHT22;11627;51.322;22.816;2023-01-25T01:16:34;2.00;99.90
22923;DHT22;11627;51.322;22.816;2023-01-25T01:19:00;2.00;99.90
22923;DHT22;11627;51.322;22.816;2023-01-25T01:21:26;1.90;99.90
22923;DHT22;11627;51.322;22.816;2023-01-25T01:23:54;1.90;99.90
22923;DHT22;11627;51.322;22.816;2023-01-25T01:26:21;3.50;99.90
22923;DHT22;11627;51.322;22.816;2023-01-25T01:28:48;1.90;99.90
22923;DHT22;11627;51.322;22.816;2023-01-25T01:31:20;1.90;99.90
22923;DHT22;11627;51.322;22.816;2023-01-25T01:33:50;1.90;99.90
22923;DHT22;11627;51.322;22.816;2023-01-25T01:36:18;1.90;99.90
22923;DHT22;11627;51.322;22.816;2023-01-25T01:38:45;1.90;99.90
22923;DHT22;11627;51.322;22.816;2023-01-25T01:41:12;1.90;99.90
22923;DHT22;11627;51.322;22.816;2023-01-25T01:43:38;2.00;99.90
22923;DHT22;11627;51.322;22.816;2023-01-25T01:46:39;2.00;99.90
22923;DHT22;11627;51.322;22.816;2023-01-25T01:49:28;2.00;99.90
22923;DHT22;11627;51.322;22.816;2023-01-25T01:52:05;2.10;99.90
22923;DHT22;11627;51.322;22.816;2023-01-25T01:54:44;2.00;99.90
22923;DHT22;11627;51.322;22.816;2023-01-25T01:57:15;3.10;99.90
22923;DHT22;11627;51.322;22.816;2023-01-25T01:59:57;2.10;99.90
22923;DHT22;11627;51.322;22.816;2023-01-25T02:02:25;1.90;99.90
22923;DHT22;11627;51.322;22.816;2023-01-25T02:04:54;2.00;99.90
22923;DHT22;11627;51.322;22.816;2023-01-25T02:07:31;1.80;99.90
22923;DHT22;11627;51.322;22.816;2023-01-25T02:09:59;1.80;99.90
22923;DHT22;11627;51.322;22.816;2023-01-25T02:12:25;1.80;99.90
22923;DHT22;11627;51.322;22.816;2023-01-25T02:14:52;1.80;99.90
22923;DHT22;11627;51.322;22.816;2023-01-25T02:17:31;1.80;99.90
22923;DHT22;11627;51.322;22.816;2023-01-25T02:20:28;1.80;99.90
22923;DHT22;11627;51.322;22.816;2023-01-25T02:25:35;1.90;99.90
22923;DHT22;11627;51.322;22.816;2023-01-25T02:28:28;1.90;99.90
22923;DHT22;11627;51.322;22.816;2023-01-25T02:30:53;1.90;99.90
22923;DHT22;11627;51.322;22.816;2023-01-25T02:33:22;3.10;99.90
22923;DHT22;11627;51.322;22.816;2023-01-25T02:35:50;1.90;99.90
22923;DHT22;11627;51.322;22.816;2023-01-25T02:38:19;1.90;99.90
22923;DHT22;11627;51.322;22.816;2023-01-25T02:40:56;2.00;99.90
22923;DHT22;11627;51.322;22.816;2023-01-25T02:43:27;2.00;99.90
22923;DHT22;11627;51.322;22.816;2023-01-25T02:45:59;3.40;99.90
22923;DHT22;11627;51.322;22.816;2023-01-25T02:48:26;1.90;99.90
22923;DHT22;11627;51.322;22.816;2023-01-25T02:50:53;2.00;99.90
22923;DHT22;11627;51.322;22.816;2023-01-25T02:53:20;1.90;99.90
22923;DHT22;11627;51.322;22.816;2023-01-25T02:55:46;1.80;99.90
22923;DHT22;11627;51.322;22.816;2023-01-25T02:58:11;1.70;99.90
22923;DHT22;11627;51.322;22.816;2023-01-25T03:00:37;1.80;99.90
22923;DHT22;11627;51.322;22.816;2023-01-25T03:03:02;1.80;99.90
22923;DHT22;11627;51.322;22.816;2023-01-25T03:05:29;1.90;99.90
22923;DHT22;11627;51.322;22.816;2023-01-25T03:07:55;1.80;99.90
22923;DHT22;11627;51.322;22.816;2023-01-25T03:10:21;1.70;99.90
22923;DHT22;11627;51.322;22.816;2023-01-25T03:12:48;1.70;99.90
22923;DHT22;11627;51.322;22.816;2023-01-25T03:15:14;1.80;99.90
22923;DHT22;11627;51.322;22.816;2023-01-25T03:17:39;1.70;99.90
22923;DHT22;11627;51.322;22.816;2023-01-25T03:20:05;1.70;99.90
22923;DHT22;11627;51.322;22.816;2023-01-25T03:22:31;1.70;99.90
22923;DHT22;11627;51.322;22.816;2023-01-25T03:24:58;1.70;99.90
22923;DHT22;11627;51.322;22.816;2023-01-25T03:27:23;1.80;99.90
22923;DHT22;11627;51.322;22.816;2023-01-25T03:29:49;1.80;99.90
22923;DHT22;11627;51.322;22.816;2023-01-25T03:32:15;1.80;99.90
22923;DHT22;11627;51.322;22.816;2023-01-25T03:34:41;1.80;99.90
22923;DHT22;11627;51.322;22.816;2023-01-25T03:37:07;1.70;99.90
22923;DHT22;11627;51.322;22.816;2023-01-25T03:39:32;1.70;99.90
22923;DHT22;11627;51.322;22.816;2023-01-25T03:41:59;1.70;99.90
22923;DHT22;11627;51.322;22.816;2023-01-25T03:44:26;1.50;99.90
22923;DHT22;11627;51.322;22.816;2023-01-25T03:46:51;1.50;99.90
22923;DHT22;11627;51.322;22.816;2023-01-25T03:49:17;1.50;99.90
22923;DHT22;11627;51.322;22.816;2023-01-25T03:51:43;1.40;99.90
22923;DHT22;11627;51.322;22.816;2023-01-25T03:54:08;1.40;99.90
22923;DHT22;11627;51.322;22.816;2023-01-25T03:56:36;1.50;99.90
22923;DHT22;11627;51.322;22.816;2023-01-25T03:59:03;1.50;99.90
22923;DHT22;11627;51.322;22.816;2023-01-25T04:01:30;1.60;99.90
22923;DHT22;11627;51.322;22.816;2023-01-25T04:03:55;1.60;99.90
22923;DHT22;11627;51.322;22.816;2023-01-25T04:06:21;1.60;99.90
22923;DHT22;11627;51.322;22.816;2023-01-25T04:08:47;1.50;99.90
22923;DHT22;11627;51.322;22.816;2023-01-25T04:11:13;1.50;99.90
22923;DHT22;11627;51.322;22.816;2023-01-25T04:13:39;1.40;99.90
22923;DHT22;11627;51.322;22.816;2023-01-25T04:16:05;1.40;99.90
22923;DHT22;11627;51.322;22.816;2023-01-25T04:18:33;1.50;99.90
22923;DHT22;11627;51.322;22.816;2023-01-25T04:21:00;1.50;99.90
22923;DHT22;11627;51.322;22.816;2023-01-25T04:23:26;1.40;99.90
22923;DHT22;11627;51.322;22.816;2023-01-25T04:26:17;1.40;99.90
22923;DHT22;11627;51.322;22.816;2023-01-25T04:28:43;1.50;99.90
22923;DHT22;11627;51.322;22.816;2023-01-25T04:31:10;1.50;99.90
22923;DHT22;11627;51.322;22.816;2023-01-25T04:33:35;1.40;99.90
22923;DHT22;11627;51.322;22.816;2023-01-25T04:36:02;1.40;99.90
22923;DHT22;11627;51.322;22.816;2023-01-25T04:38:28;1.30;99.90
22923;DHT22;11627;51.322;22.816;2023-01-25T04:40:55;1.30;99.90
22923;DHT22;11627;51.322;22.816;2023-01-25T04:43:22;1.30;99.90
22923;DHT22;11627;51.322;22.816;2023-01-25T04:45:48;1.40;99.90
22923;DHT22;11627;51.322;22.816;2023-01-25T04:48:14;1.40;99.90
22923;DHT22;11627;51.322;22.816;2023-01-25T04:50:41;1.40;99.90
22923;DHT22;11627;51.322;22.816;2023-01-25T04:53:10;1.40;99.90
22923;DHT22;11627;51.322;22.816;2023-01-25T04:55:36;1.40;99.90
22923;DHT22;11627;51.322;22.816;2023-01-25T04:58:02;1.30;99.90
22923;DHT22;11627;51.322;22.816;2023-01-25T05:00:29;1.30;99.90
22923;DHT22;11627;51.322;22.816;2023-01-25T05:02:55;1.30;99.90
22923;DHT22;11627;51.322;22.816;2023-01-25T05:05:21;1.30;99.90
22923;DHT22;11627;51.322;22.816;2023-01-25T05:07:47;1.30;99.90
22923;DHT22;11627;51.322;22.816;2023-01-25T05:10:12;1.40;99.90
22923;DHT22;11627;51.322;22.816;2023-01-25T05:12:38;1.40;99.90
22923;DHT22;11627;51.322;22.816;2023-01-25T05:15:06;1.30;99.90
22923;DHT22;11627;51.322;22.816;2023-01-25T05:17:33;1.30;99.90
22923;DHT22;11627;51.322;22.816;2023-01-25T05:20:00;1.30;99.90
22923;DHT22;11627;51.322;22.816;2023-01-25T05:22:26;1.30;99.90
22923;DHT22;11627;51.322;22.816;2023-01-25T05:24:53;1.30;99.90
22923;DHT22;11627;51.322;22.816;2023-01-25T05:27:19;1.20;99.90
22923;DHT22;11627;51.322;22.816;2023-01-25T05:29:45;1.20;99.90
22923;DHT22;11627;51.322;22.816;2023-01-25T05:32:20;1.20;99.90
22923;DHT22;11627;51.322;22.816;2023-01-25T05:34:48;1.20;99.90
22923;DHT22;11627;51.322;22.816;2023-01-25T05:37:17;1.10;99.90
22923;DHT22;11627;51.322;22.816;2023-01-25T05:39:42;1.10;99.90
22923;DHT22;11627;51.322;22.816;2023-01-25T05:42:14;1.00;99.90
22923;DHT22;11627;51.322;22.816;2023-01-25T05:44:40;1.10;99.90
22923;DHT22;11627;51.322;22.816;2023-01-25T05:47:07;1.00;99.90
22923;DHT22;11627;51.322;22.816;2023-01-25T05:49:35;1.10;99.90
22923;DHT22;11627;51.322;22.816;2023-01-25T05:52:00;1.10;99.90
22923;DHT22;11627;51.322;22.816;2023-01-25T05:54:26;1.00;99.90
22923;DHT22;11627;51.322;22.816;2023-01-25T05:56:51;1.10;99.90
22923;DHT22;11627;51.322;22.816;2023-01-25T05:59:17;1.10;99.90
22923;DHT22;11627;51.322;22.816;2023-01-25T06:01:43;1.10;99.90
22923;DHT22;11627;51.322;22.816;2023-01-25T06:04:13;1.00;99.90
22923;DHT22;11627;51.322;22.816;2023-01-25T06:06:39;1.00;99.90
22923;DHT22;11627;51.322;22.816;2023-01-25T06:09:04;1.00;99.90
22923;DHT22;11627;51.322;22.816;2023-01-25T06:11:30;1.90;99.90
22923;DHT22;11627;51.322;22.816;2023-01-25T06:13:56;1.00;99.90
22923;DHT22;11627;51.322;22.816;2023-01-25T06:16:22;1.00;99.90
22923;DHT22;11627;51.322;22.816;2023-01-25T06:18:48;1.00;99.90
22923;DHT22;11627;51.322;22.816;2023-01-25T06:21:13;1.10;99.90
22923;DHT22;11627;51.322;22.816;2023-01-25T06:23:39;1.10;99.90
22923;DHT22;11627;51.322;22.816;2023-01-25T06:26:07;1.10;99.90
22923;DHT22;11627;51.322;22.816;2023-01-25T06:28:35;2.70;99.90
22923;DHT22;11627;51.322;22.816;2023-01-25T06:31:05;1.00;99.90
22923;DHT22;11627;51.322;22.816;2023-01-25T06:33:31;1.00;99.90
22923;DHT22;11627;51.322;22.816;2023-01-25T06:36:20;1.10;99.90
22923;DHT22;11627;51.322;22.816;2023-01-25T06:38:51;1.10;99.90
22923;DHT22;11627;51.322;22.816;2023-01-25T06:41:17;1.20;99.90
22923;DHT22;11627;51.322;22.816;2023-01-25T06:43:43;1.30;99.90
22923;DHT22;11627;51.322;22.816;2023-01-25T06:46:09;1.20;99.90
22923;DHT22;11627;51.322;22.816;2023-01-25T06:48:37;1.20;99.70
22923;DHT22;11627;51.322;22.816;2023-01-25T06:51:05;1.10;98.80
22923;DHT22;11627;51.322;22.816;2023-01-25T06:53:33;1.00;99.00
22923;DHT22;11627;51.322;22.816;2023-01-25T06:56:16;0.90;98.10
22923;DHT22;11627;51.322;22.816;2023-01-25T06:58:44;1.00;98.70
22923;DHT22;11627;51.322;22.816;2023-01-25T07:01:23;1.10;98.30
22923;DHT22;11627;51.322;22.816;2023-01-25T07:03:56;1.00;97.40
22923;DHT22;11627;51.322;22.816;2023-01-25T07:06:24;1.00;97.20
22923;DHT22;11627;51.322;22.816;2023-01-25T07:08:50;1.10;96.80
22923;DHT22;11627;51.322;22.816;2023-01-25T07:11:16;1.00;95.90
22923;DHT22;11627;51.322;22.816;2023-01-25T07:13:44;1.10;94.00
22923;DHT22;11627;51.322;22.816;2023-01-25T07:16:16;1.00;85.50
22923;DHT22;11627;51.322;22.816;2023-01-25T07:18:42;0.90;88.60
22923;DHT22;11627;51.322;22.816;2023-01-25T07:21:13;0.80;89.70
22923;DHT22;11627;51.322;22.816;2023-01-25T07:23:40;0.80;91.90
22923;DHT22;11627;51.322;22.816;2023-01-25T07:28:38;0.70;92.10
22923;DHT22;11627;51.322;22.816;2023-01-25T07:31:05;0.70;92.90
22923;DHT22;11627;51.322;22.816;2023-01-25T07:33:32;0.70;93.30
22923;DHT22;11627;51.322;22.816;2023-01-25T07:36:05;0.80;92.90
22923;DHT22;11627;51.322;22.816;2023-01-25T07:38:32;0.90;92.90
22923;DHT22;11627;51.322;22.816;2023-01-25T07:40:58;0.90;92.90
22923;DHT22;11627;51.322;22.816;2023-01-25T07:43:24;0.90;93.30
22923;DHT22;11627;51.322;22.816;2023-01-25T07:45:50;1.00;93.50
22923;DHT22;11627;51.322;22.816;2023-01-25T07:48:21;1.10;92.80
22923;DHT22;11627;51.322;22.816;2023-01-25T07:50:46;1.10;92.50
22923;DHT22;11627;51.322;22.816;2023-01-25T07:53:15;0.90;92.10
22923;DHT22;11627;51.322;22.816;2023-01-25T07:55:42;0.90;92.40
22923;DHT22;11627;51.322;22.816;2023-01-25T07:58:12;0.80;90.30
22923;DHT22;11627;51.322;22.816;2023-01-25T08:00:37;0.80;87.40
22923;DHT22;11627;51.322;22.816;2023-01-25T08:03:04;0.80;89.50
22923;DHT22;11627;51.322;22.816;2023-01-25T08:05:32;0.80;88.30
22923;DHT22;11627;51.322;22.816;2023-01-25T08:07:58;0.90;88.90
22923;DHT22;11627;51.322;22.816;2023-01-25T08:10:24;1.00;90.00
22923;DHT22;11627;51.322;22.816;2023-01-25T08:12:49;0.90;90.00
22923;DHT22;11627;51.322;22.816;2023-01-25T08:15:15;0.80;86.20
22923;DHT22;11627;51.322;22.816;2023-01-25T08:17:41;0.90;85.50
22923;DHT22;11627;51.322;22.816;2023-01-25T08:20:08;0.90;83.70
22923;DHT22;11627;51.322;22.816;2023-01-25T08:22:33;0.90;83.50
22923;DHT22;11627;51.322;22.816;2023-01-25T08:25:01;0.90;84.10
22923;DHT22;11627;51.322;22.816;2023-01-25T08:27:28;0.90;84.10
22923;DHT22;11627;51.322;22.816;2023-01-25T08:29:55;0.90;79.80
22923;DHT22;11627;51.322;22.816;2023-01-25T08:32:21;1.00;77.70
22923;DHT22;11627;51.322;22.816;2023-01-25T08:34:46;1.00;77.30
22923;DHT22;11627;51.322;22.816;2023-01-25T08:37:12;1.00;78.90
22923;DHT22;11627;51.322;22.816;2023-01-25T08:39:38;1.10;80.00
22923;DHT22;11627;51.322;22.816;2023-01-25T08:42:05;1.00;71.20
22923;DHT22;11627;51.322;22.816;2023-01-25T08:44:32;1.10;71.20
22923;DHT22;11627;51.322;22.816;2023-01-25T08:46:57;1.10;71.00
22923;DHT22;11627;51.322;22.816;2023-01-25T08:49:23;1.10;68.00
22923;DHT22;11627;51.322;22.816;2023-01-25T08:51:48;1.20;68.00
22923;DHT22;11627;51.322;22.816;2023-01-25T08:54:15;1.30;67.40
22923;DHT22;11627;51.322;22.816;2023-01-25T08:56:41;1.30;64.80
22923;DHT22;11627;51.322;22.816;2023-01-25T08:59:10;1.10;53.50
22923;DHT22;11627;51.322;22.816;2023-01-25T09:01:37;1.10;56.10
22923;DHT22;11627;51.322;22.816;2023-01-25T09:04:03;1.10;60.60
22923;DHT22;11627;51.322;22.816;2023-01-25T09:06:29;1.10;59.50
22923;DHT22;11627;51.322;22.816;2023-01-25T09:08:57;1.20;61.50
22923;DHT22;11627;51.322;22.816;2023-01-25T09:11:24;1.10;58.70
22923;DHT22;11627;51.322;22.816;2023-01-25T09:13:50;1.20;61.00
22923;DHT22;11627;51.322;22.816;2023-01-25T09:16:21;1.20;60.00
22923;DHT22;11627;51.322;22.816;2023-01-25T09:18:55;1.20;59.10
22923;DHT22;11627;51.322;22.816;2023-01-25T09:21:23;1.30;59.30
22923;DHT22;11627;51.322;22.816;2023-01-25T09:23:51;1.10;56.90
22923;DHT22;11627;51.322;22.816;2023-01-25T09:26:18;1.20;61.50
22923;DHT22;11627;51.322;22.816;2023-01-25T09:28:52;1.10;62.50
22923;DHT22;11627;51.322;22.816;2023-01-25T09:31:19;1.20;63.50
22923;DHT22;11627;51.322;22.816;2023-01-25T09:33:45;1.30;63.20
22923;DHT22;11627;51.322;22.816;2023-01-25T09:36:11;1.30;64.90
22923;DHT22;11627;51.322;22.816;2023-01-25T09:38:36;1.20;63.00
22923;DHT22;11627;51.322;22.816;2023-01-25T09:46:15;1.40;66.20
22923;DHT22;11627;51.322;22.816;2023-01-25T09:54:39;1.60;65.30
22923;DHT22;11627;51.322;22.816;2023-01-25T09:57:18;1.70;61.60
22923;DHT22;11627;51.322;22.816;2023-01-25T09:59:47;1.80;60.20
22923;DHT22;11627;51.322;22.816;2023-01-25T10:05:24;1.50;49.80
22923;DHT22;11627;51.322;22.816;2023-01-25T10:10:41;1.50;54.50
22923;DHT22;11627;51.322;22.816;2023-01-25T10:13:12;1.30;52.70
22923;DHT22;11627;51.322;22.816;2023-01-25T10:16:12;1.40;57.70
22923;DHT22;11627;51.322;22.816;2023-01-25T10:21:37;1.40;59.00
22923;DHT22;11627;51.322;22.816;2023-01-25T10:26:56;1.30;63.00
22923;DHT22;11627;51.322;22.816;2023-01-25T10:29:28;1.40;66.80
22923;DHT22;11627;51.322;22.816;2023-01-25T10:32:08;1.40;66.80
22923;DHT22;11627;51.322;22.816;2023-01-25T10:34:39;1.50;66.40
22923;DHT22;11627;51.322;22.816;2023-01-25T10:37:18;1.60;67.30
22923;DHT22;11627;51.322;22.816;2023-01-25T10:40:09;1.80;66.40
22923;DHT22;11627;51.322;22.816;2023-01-25T10:42:59;1.90;64.40
22923;DHT22;11627;51.322;22.816;2023-01-25T10:45:27;1.70;56.90
22923;DHT22;11627;51.322;22.816;2023-01-25T10:48:04;1.70;59.20
22923;DHT22;11627;51.322;22.816;2023-01-25T10:50:45;1.70;61.00
22923;DHT22;11627;51.322;22.816;2023-01-25T10:53:33;1.80;59.80
22923;DHT22;11627;51.322;22.816;2023-01-25T10:56:21;1.80;58.50
22923;DHT22;11627;51.322;22.816;2023-01-25T10:58:50;1.70;64.60
22923;DHT22;11627;51.322;22.816;2023-01-25T11:01:32;1.70;63.40
22923;DHT22;11627;51.322;22.816;2023-01-25T11:03:59;1.50;59.80
22923;DHT22;11627;51.322;22.816;2023-01-25T11:06:33;1.60;62.40
22923;DHT22;11627;51.322;22.816;2023-01-25T11:09:05;3.00;62.80
22923;DHT22;11627;51.322;22.816;2023-01-25T11:14:32;1.60;68.60
22923;DHT22;11627;51.322;22.816;2023-01-25T11:17:00;1.40;61.00
22923;DHT22;11627;51.322;22.816;2023-01-25T11:19:38;1.40;68.40
22923;DHT22;11627;51.322;22.816;2023-01-25T11:22:25;1.50;72.20
22923;DHT22;11627;51.322;22.816;2023-01-25T11:24:54;1.60;71.10
22923;DHT22;11627;51.322;22.816;2023-01-25T11:27:22;1.70;66.80
22923;DHT22;11627;51.322;22.816;2023-01-25T11:30:11;1.50;70.80
22923;DHT22;11627;51.322;22.816;2023-01-25T11:32:41;1.50;72.80
22923;DHT22;11627;51.322;22.816;2023-01-25T11:35:12;1.60;72.30
22923;DHT22;11627;51.322;22.816;2023-01-25T11:40:26;1.70;71.20
22923;DHT22;11627;51.322;22.816;2023-01-25T11:46:06;1.60;66.10
22923;DHT22;11627;51.322;22.816;2023-01-25T11:49:04;1.70;65.60
22923;DHT22;11627;51.322;22.816;2023-01-25T11:52:06;1.60;65.70
22923;DHT22;11627;51.322;22.816;2023-01-25T11:55:12;1.60;61.90
22923;DHT22;11627;51.322;22.816;2023-01-25T11:58:15;1.50;63.90
22923;DHT22;11627;51.322;22.816;2023-01-25T12:18:01;1.30;84.70
22923;DHT22;11627;51.322;22.816;2023-01-25T12:21:01;1.00;90.70
22923;DHT22;11627;51.322;22.816;2023-01-25T12:29:38;1.00;94.60
22923;DHT22;11627;51.322;22.816;2023-01-25T12:32:38;0.90;93.80
22923;DHT22;11627;51.322;22.816;2023-01-25T12:37:56;1.00;95.00
22923;DHT22;11627;51.322;22.816;2023-01-25T12:43:36;1.00;93.70
22923;DHT22;11627;51.322;22.816;2023-01-25T12:46:13;1.00;93.70
22923;DHT22;11627;51.322;22.816;2023-01-25T12:48:45;1.10;93.30
22923;DHT22;11627;51.322;22.816;2023-01-25T12:51:14;1.00;93.40
22923;DHT22;11627;51.322;22.816;2023-01-25T12:53:47;1.00;94.00
22923;DHT22;11627;51.322;22.816;2023-01-25T12:58:59;0.80;93.40
22923;DHT22;11627;51.322;22.816;2023-01-25T13:01:36;0.90;92.80
22923;DHT22;11627;51.322;22.816;2023-01-25T13:04:34;0.90;93.60
22923;DHT22;11627;51.322;22.816;2023-01-25T13:07:15;0.90;93.40
22923;DHT22;11627;51.322;22.816;2023-01-25T13:12:15;0.90;91.90
22923;DHT22;11627;51.322;22.816;2023-01-25T13:14:42;0.90;91.40
22923;DHT22;11627;51.322;22.816;2023-01-25T13:19:45;0.90;91.30
22923;DHT22;11627;51.322;22.816;2023-01-25T13:22:12;1.00;91.70
22923;DHT22;11627;51.322;22.816;2023-01-25T13:25:18;1.00;91.80
22923;DHT22;11627;51.322;22.816;2023-01-25T13:27:45;1.10;91.50
22923;DHT22;11627;51.322;22.816;2023-01-25T13:30:32;1.00;90.80
22923;DHT22;11627;51.322;22.816;2023-01-25T13:32:59;1.10;91.10
22923;DHT22;11627;51.322;22.816;2023-01-25T13:35:37;1.20;91.10
22923;DHT22;11627;51.322;22.816;2023-01-25T13:38:28;1.10;91.10
22923;DHT22;11627;51.322;22.816;2023-01-25T13:41:05;1.10;91.80
22923;DHT22;11627;51.322;22.816;2023-01-25T13:43:36;1.10;92.10
22923;DHT22;11627;51.322;22.816;2023-01-25T13:46:03;1.20;91.90
22923;DHT22;11627;51.322;22.816;2023-01-25T13:48:33;1.20;92.20
22923;DHT22;11627;51.322;22.816;2023-01-25T13:51:09;1.30;91.70
22923;DHT22;11627;51.322;22.816;2023-01-25T13:53:39;1.30;91.10
22923;DHT22;11627;51.322;22.816;2023-01-25T13:56:18;1.30;90.40
22923;DHT22;11627;51.322;22.816;2023-01-25T13:58:46;1.20;88.20
22923;DHT22;11627;51.322;22.816;2023-01-25T14:01:15;1.00;87.10
22923;DHT22;11627;51.322;22.816;2023-01-25T14:03:45;1.00;90.30
22923;DHT22;11627;51.322;22.816;2023-01-25T14:06:17;1.10;91.90
22923;DHT22;11627;51.322;22.816;2023-01-25T14:08:45;1.10;92.00
22923;DHT22;11627;51.322;22.816;2023-01-25T14:11:43;1.10;91.80
22923;DHT22;11627;51.322;22.816;2023-01-25T14:17:18;1.10;90.90
22923;DHT22;11627;51.322;22.816;2023-01-25T14:19:51;1.10;91.10
22923;DHT22;11627;51.322;22.816;2023-01-25T14:22:31;1.10;91.70
22923;DHT22;11627;51.322;22.816;2023-01-25T14:25:11;1.10;92.00
22923;DHT22;11627;51.322;22.816;2023-01-25T14:28:00;1.10;91.80
22923;DHT22;11627;51.322;22.816;2023-01-25T14:30:29;1.20;92.10
22923;DHT22;11627;51.322;22.816;2023-01-25T14:33:25;1.20;92.10
22923;DHT22;11627;51.322;22.816;2023-01-25T14:35:54;1.20;92.50
22923;DHT22;11627;51.322;22.816;2023-01-25T14:38:41;1.10;91.80
22923;DHT22;11627;51.322;22.816;2023-01-25T14:41:17;1.10;91.70
22923;DHT22;11627;51.322;22.816;2023-01-25T14:43:54;1.10;91.90
22923;DHT22;11627;51.322;22.816;2023-01-25T14:46:32;1.10;92.20
22923;DHT22;11627;51.322;22.816;2023-01-25T14:54:36;1.10;93.40
22923;DHT22;11627;51.322;22.816;2023-01-25T14:57:34;1.00;93.40
22923;DHT22;11627;51.322;22.816;2023-01-25T15:00:03;1.20;92.90
22923;DHT22;11627;51.322;22.816;2023-01-25T15:02:45;1.20;92.80
22923;DHT22;11627;51.322;22.816;2023-01-25T15:05:26;1.10;93.00
22923;DHT22;11627;51.322;22.816;2023-01-25T15:08:29;1.00;93.20
22923;DHT22;11627;51.322;22.816;2023-01-25T15:10:57;1.00;93.80
22923;DHT22;11627;51.322;22.816;2023-01-25T15:13:44;1.10;93.80
22923;DHT22;11627;51.322;22.816;2023-01-25T15:16:09;1.20;93.60
22923;DHT22;11627;51.322;22.816;2023-01-25T15:21:30;1.20;93.00
22923;DHT22;11627;51.322;22.816;2023-01-25T15:23:59;1.20;92.90
22923;DHT22;11627;51.322;22.816;2023-01-25T15:26:32;1.30;92.80
22923;DHT22;11627;51.322;22.816;2023-01-25T15:29:00;1.30;92.60
22923;DHT22;11627;51.322;22.816;2023-01-25T15:31:28;1.40;92.10
22923;DHT22;11627;51.322;22.816;2023-01-25T15:33:55;1.40;91.70
22923;DHT22;11627;51.322;22.816;2023-01-25T15:36:21;1.40;91.20
22923;DHT22;11627;51.322;22.816;2023-01-25T15:38:48;1.50;91.10
22923;DHT22;11627;51.322;22.816;2023-01-25T15:41:14;1.50;90.40
22923;DHT22;11627;51.322;22.816;2023-01-25T15:43:41;1.60;89.00
22923;DHT22;11627;51.322;22.816;2023-01-25T15:46:25;1.60;87.50
22923;DHT22;11627;51.322;22.816;2023-01-25T15:48:54;1.50;86.60
22923;DHT22;11627;51.322;22.816;2023-01-25T15:51:22;1.50;87.50
22923;DHT22;11627;51.322;22.816;2023-01-25T15:53:47;1.50;89.60
22923;DHT22;11627;51.322;22.816;2023-01-25T15:56:26;1.50;89.20
22923;DHT22;11627;51.322;22.816;2023-01-25T15:58:57;1.40;90.10
22923;DHT22;11627;51.322;22.816;2023-01-25T16:01:25;1.50;90.20
22923;DHT22;11627;51.322;22.816;2023-01-25T16:03:54;1.50;90.70
22923;DHT22;11627;51.322;22.816;2023-01-25T16:06:48;1.50;90.50
22923;DHT22;11627;51.322;22.816;2023-01-25T16:09:26;1.40;90.60
22923;DHT22;11627;51.322;22.816;2023-01-25T16:11:56;1.40;90.80
22923;DHT22;11627;51.322;22.816;2023-01-25T16:14:24;1.40;91.00
22923;DHT22;11627;51.322;22.816;2023-01-25T16:16:58;1.40;90.90
22923;DHT22;11627;51.322;22.816;2023-01-25T16:19:27;1.40;91.30
22923;DHT22;11627;51.322;22.816;2023-01-25T16:21:54;1.60;91.70
22923;DHT22;11627;51.322;22.816;2023-01-25T16:24:20;1.30;92.20
22923;DHT22;11627;51.322;22.816;2023-01-25T16:26:55;1.30;92.60
22923;DHT22;11627;51.322;22.816;2023-01-25T16:29:22;1.40;93.10
22923;DHT22;11627;51.322;22.816;2023-01-25T16:31:48;1.50;93.50
22923;DHT22;11627;51.322;22.816;2023-01-25T16:34:15;1.50;92.90
22923;DHT22;11627;51.322;22.816;2023-01-25T16:36:42;1.50;93.20
22923;DHT22;11627;51.322;22.816;2023-01-25T16:39:19;1.40;93.20
22923;DHT22;11627;51.322;22.816;2023-01-25T16:41:46;1.40;93.60
22923;DHT22;11627;51.322;22.816;2023-01-25T16:44:13;1.40;93.70
22923;DHT22;11627;51.322;22.816;2023-01-25T16:46:38;1.40;93.60
22923;DHT22;11627;51.322;22.816;2023-01-25T16:49:04;1.50;93.80
22923;DHT22;11627;51.322;22.816;2023-01-25T16:51:33;1.50;93.80
22923;DHT22;11627;51.322;22.816;2023-01-25T16:53:58;1.50;93.60
22923;DHT22;11627;51.322;22.816;2023-01-25T16:56:29;1.50;94.10
22923;DHT22;11627;51.322;22.816;2023-01-25T16:58:58;1.50;94.10
22923;DHT22;11627;51.322;22.816;2023-01-25T17:01:26;1.50;93.90
22923;DHT22;11627;51.322;22.816;2023-01-25T17:03:54;1.50;93.60
22923;DHT22;11627;51.322;22.816;2023-01-25T17:06:26;1.50;93.20
22923;DHT22;11627;51.322;22.816;2023-01-25T17:08:57;1.50;93.30
22923;DHT22;11627;51.322;22.816;2023-01-25T17:11:23;1.50;93.60
22923;DHT22;11627;51.322;22.816;2023-01-25T17:13:54;1.50;93.40
22923;DHT22;11627;51.322;22.816;2023-01-25T17:16:22;1.40;93.50
22923;DHT22;11627;51.322;22.816;2023-01-25T17:19:11;1.40;93.50
22923;DHT22;11627;51.322;22.816;2023-01-25T17:21:37;1.40;93.60
22923;DHT22;11627;51.322;22.816;2023-01-25T17:24:02;1.20;93.80